Cedartown, GA

6:21 PM EST on December 27, 2014 (GMT -0500)
Lindale | Change Station
CLOSE
Current Station
Personal Weather Station
Location: Lindale, GA
Elevation: 907 ft
Nearby Weather Stations

Elev 907 ft 34.16 °N, 85.19 °W | Updated 6 seconds ago

Overcast
Overcast
52.6 °F
Feels Like 52.6 °F
N
0.0
Wind Variable Wind from North
Gusts 2.0 mph

Today
High -- | Low -- °F
--% Chance of Precip.
Yesterday
High -- | Low -- °F
Precip. -- in
7:45 AM 5:39 PM
Waxing Crescent, 41% visible
Pressure 30.21 in
Visibility 10.0 miles
Clouds Scattered Clouds 4800 ft
Scattered Clouds 8000 ft
Overcast 11000 ft
Dew Point 48 °F
Humidity 83%
Rainfall 0.07 in
Snow Depth Not available.
UV 0.0 out of 12
Pollen 1.30 out of 12
Air Quality Not available.
Flu Activity Not available.
METAR KPUJ 272315Z AUTO 00000KT 10SM SCT048 SCT080 OVC110 13/09 A3021 RMK AO2

More Conditions Fewer Conditions

Pressure 30.21 in
Visibility 10.0 miles
Clouds Scattered Clouds 4800 ft
Scattered Clouds 8000 ft
Overcast 11000 ft
Dew Point 48 °F
Humidity 83%
Rainfall 0.07 in
Snow Depth Not available.
UV 0.0 out of 12
Pollen 1.30 out of 12
Air Quality Not available.
Flu Activity Not available.
METAR KPUJ 272315Z AUTO 00000KT 10SM SCT048 SCT080 OVC110 13/09 A3021 RMK AO2

More Conditions Fewer Conditions

10-Day Weather Forecast

Almanac

Astronomy

Dec. 27, 2014 Rise Set
Actual Time
Civil Twilight
Nautical Twilight
Astronomical Twilight
Moon
Length of Visible Light
Length of Day
Tomorrow will be .
, % of the Moon is Illuminated

Today's Extremes

State Highs State Lows

Community

WunderPhotos

Upload Photos

1,781,102 photos uploaded!

WunderBlogs® & News

Nearby

Air Quality

  Air Quality AQ Index Pollutant
Not available.

Snow Depth

Station Depth Elevation

Earthquake Activity

City Distance Mag. Time & Date
Minimum magnitude displayed is 2.5.

Coastal Water Temperatures

Place Temperature

Nearby Weather Stations